createdAt,value
2022-09-03T00:02:27.745Z,100896.66
2022-09-03T00:05:05.941Z,100893.69
2022-09-03T00:07:47.181Z,100874.56
2022-09-03T00:10:24.335Z,100887.91
2022-09-03T00:13:00.273Z,100884.19
2022-09-03T00:15:33.779Z,100886.31
2022-09-03T00:18:07.245Z,100885.94
2022-09-03T00:20:41.435Z,100875.84
2022-09-03T00:23:18.432Z,100860.03
2022-09-03T00:25:52.175Z,100884.41
2022-09-03T00:28:27.334Z,100877.41
2022-09-03T00:31:08.659Z,100877.56
2022-09-03T00:33:40.982Z,100875.88
2022-09-03T00:36:17.226Z,100863.44
2022-09-03T00:38:46.083Z,100873.75
2022-09-03T00:41:33.727Z,100881.19
2022-09-03T00:44:32.073Z,100880.91
2022-09-03T00:47:11.378Z,100879.91
2022-09-03T00:49:56.004Z,100870.22
2022-09-03T00:52:40.184Z,100885.00
2022-09-03T00:55:16.876Z,100878.88
2022-09-03T00:57:59.759Z,100884.88
2022-09-03T01:00:29.175Z,100881.41
2022-09-03T01:03:08.766Z,100886.00
2022-09-03T01:05:56.492Z,100883.75
2022-09-03T01:08:49.115Z,100864.34
2022-09-03T01:11:23.134Z,100873.91
2022-09-03T01:14:06.471Z,100856.34
2022-09-03T01:16:42.729Z,100880.53
2022-09-03T01:19:45.873Z,100879.53
2022-09-03T01:22:44.872Z,100876.47
2022-09-03T01:25:24.500Z,100887.06
2022-09-03T01:28:13.471Z,100884.88
2022-09-03T01:30:49.297Z,100881.13
2022-09-03T01:33:27.072Z,100888.38
2022-09-03T01:36:08.911Z,100873.28
2022-09-03T01:38:44.150Z,100862.66
2022-09-03T01:41:51.204Z,100878.34
2022-09-03T01:44:37.458Z,100882.81
2022-09-03T01:47:18.547Z,100876.81
2022-09-03T01:49:57.845Z,100879.56
2022-09-03T01:52:41.543Z,100879.16
2022-09-03T01:55:26.021Z,100851.22
2022-09-03T01:58:03.442Z,100874.66
2022-09-03T02:00:35.961Z,100876.50
2022-09-03T02:03:09.222Z,100880.06
2022-09-03T02:05:37.590Z,100852.22
2022-09-03T02:08:08.313Z,100879.47
2022-09-03T02:10:42.454Z,100874.03
2022-09-03T02:13:16.762Z,100874.03
2022-09-03T02:15:49.057Z,100874.09
2022-09-03T02:18:22.438Z,100876.72
2022-09-03T02:20:53.745Z,100870.63
2022-09-03T02:23:24.669Z,100839.44
2022-09-03T02:25:59.403Z,100864.03
2022-09-03T02:28:28.362Z,100864.31
2022-09-03T02:30:58.371Z,100868.03
2022-09-03T02:33:27.722Z,100859.56
2022-09-03T02:35:56.395Z,100850.47
2022-09-03T02:38:27.148Z,100838.34
2022-09-03T02:40:56.354Z,100874.06
2022-09-03T02:43:28.726Z,100859.91
2022-09-03T02:46:03.727Z,100863.81
2022-09-03T02:48:32.380Z,100864.69
2022-09-03T02:51:01.062Z,100845.22
2022-09-03T02:53:29.452Z,100816.78
2022-09-03T02:56:01.148Z,100861.41
2022-09-03T02:58:31.546Z,100872.53
2022-09-03T03:01:01.430Z,100839.91
2022-09-03T03:03:30.544Z,100796.97
2022-09-03T03:06:02.150Z,100846.16
2022-09-03T03:08:32.931Z,100842.53
2022-09-03T03:11:02.119Z,100850.03
2022-09-03T03:13:32.211Z,100856.53
2022-09-03T03:16:06.235Z,100823.59
2022-09-03T03:18:35.039Z,100853.19
2022-09-03T03:21:08.309Z,100852.34
2022-09-03T03:23:37.912Z,100859.63
2022-09-03T03:26:09.699Z,100862.72
2022-09-03T03:28:38.902Z,100858.28
2022-09-03T03:31:09.530Z,100858.81
2022-09-03T03:33:37.722Z,100830.97
2022-09-03T03:36:08.068Z,100866.84
2022-09-03T03:38:36.987Z,100859.97
2022-09-03T03:41:10.396Z,100858.28
2022-09-03T03:43:39.337Z,100809.25
2022-09-03T03:46:09.172Z,100857.19
2022-09-03T03:48:38.291Z,100858.41
2022-09-03T03:51:09.278Z,100857.19
2022-09-03T03:53:39.952Z,100856.22
2022-09-03T03:56:10.725Z,100833.00
2022-09-03T03:58:42.439Z,100854.13
2022-09-03T04:01:14.487Z,100822.09
2022-09-03T04:03:43.983Z,100851.94
2022-09-03T04:06:15.735Z,100856.22
2022-09-03T04:08:46.373Z,100853.03
2022-09-03T04:11:18.073Z,100852.22
2022-09-03T04:13:48.080Z,100840.25
2022-09-03T04:16:20.313Z,100856.41
2022-09-03T04:18:50.181Z,100846.31
2022-09-03T04:21:20.830Z,100819.72
2022-09-03T04:23:50.677Z,100849.44
2022-09-03T04:26:22.248Z,100850.25
2022-09-03T04:28:51.274Z,100853.25
2022-09-03T04:31:22.534Z,100831.97
2022-09-03T04:33:51.225Z,100852.44
2022-09-03T04:36:21.457Z,100847.34
2022-09-03T04:38:51.856Z,100826.44
2022-09-03T04:41:23.043Z,100843.72
2022-09-03T04:43:52.987Z,100796.97
2022-09-03T04:46:26.057Z,100843.25
2022-09-03T04:48:57.016Z,100851.00
2022-09-03T04:51:28.264Z,100854.63
2022-09-03T04:54:00.138Z,100839.06
2022-09-03T04:56:31.455Z,100845.63
2022-09-03T04:59:02.161Z,100860.47
2022-09-03T05:01:33.679Z,100850.03
2022-09-03T05:04:02.457Z,100861.00
2022-09-03T05:06:32.560Z,100853.97
2022-09-03T05:09:01.957Z,100857.50
2022-09-03T05:11:31.068Z,100832.69
2022-09-03T05:14:01.082Z,100868.22
2022-09-03T05:16:31.450Z,100854.03
2022-09-03T05:19:01.960Z,100869.81
2022-09-03T05:21:31.190Z,100864.78
2022-09-03T05:24:03.004Z,100860.56
2022-09-03T05:26:33.881Z,100857.97
2022-09-03T05:29:05.887Z,100852.16
2022-09-03T05:31:38.914Z,100857.34
2022-09-03T05:34:10.037Z,100861.75
2022-09-03T05:36:40.296Z,100852.50
2022-09-03T05:39:08.618Z,100846.31
2022-09-03T05:41:37.055Z,100839.38
2022-09-03T05:44:06.086Z,100851.41
2022-09-03T05:46:36.970Z,100856.25
2022-09-03T05:49:07.597Z,100854.63
2022-09-03T05:51:37.234Z,100858.13
2022-09-03T05:54:05.664Z,100827.53
2022-09-03T05:56:35.780Z,100754.75
2022-09-03T05:59:09.186Z,100851.56
2022-09-03T06:01:41.399Z,100868.06
2022-09-03T06:04:19.295Z,100826.19
2022-09-03T06:06:49.267Z,100879.50
2022-09-03T06:09:20.193Z,100884.09
2022-09-03T06:11:50.089Z,100877.88
2022-09-03T06:14:18.836Z,100887.19
2022-09-03T06:16:50.055Z,100883.84
2022-09-03T06:19:19.316Z,100887.53
2022-09-03T06:21:48.488Z,100862.94
2022-09-03T06:24:18.396Z,100844.13
2022-09-03T06:26:46.774Z,100886.72
2022-09-03T06:29:15.709Z,100891.38
2022-09-03T06:31:44.256Z,100859.25
2022-09-03T06:34:14.028Z,100888.03
2022-09-03T06:36:42.304Z,100887.09
2022-09-03T06:39:10.613Z,100892.78
2022-09-03T06:41:40.021Z,100888.78
2022-09-03T06:44:12.344Z,100888.84
2022-09-03T06:46:43.118Z,100871.66
2022-09-03T06:49:14.088Z,100905.75
2022-09-03T06:51:43.655Z,100900.47
2022-09-03T06:54:13.530Z,100907.00
2022-09-03T06:56:42.713Z,100911.09
2022-09-03T06:59:13.703Z,100908.06
2022-09-03T07:01:45.530Z,100907.16
2022-09-03T07:04:20.090Z,100894.06
2022-09-03T07:06:49.047Z,100903.66
2022-09-03T07:09:19.022Z,100881.38
2022-09-03T07:11:49.231Z,100911.72
2022-09-03T07:14:19.468Z,100909.59
2022-09-03T07:16:48.902Z,100906.09
2022-09-03T07:19:18.950Z,100901.53
2022-09-03T07:21:50.547Z,100844.91
2022-09-03T07:24:22.118Z,100881.38
2022-09-03T07:26:51.128Z,100794.91
2022-09-03T07:29:21.556Z,100894.06
2022-09-03T07:31:52.592Z,100918.22
2022-09-03T07:34:26.542Z,100914.03
2022-09-03T07:36:55.415Z,100915.34
2022-09-03T07:39:23.805Z,100914.66
2022-09-03T07:41:52.306Z,100914.22
2022-09-03T07:44:20.896Z,100914.31
2022-09-03T07:46:50.870Z,100909.72
2022-09-03T07:49:20.277Z,100914.88
2022-09-03T07:51:54.016Z,100907.69
2022-09-03T07:54:24.108Z,100926.75
2022-09-03T07:56:52.699Z,100923.59
2022-09-03T07:59:23.051Z,100901.41
2022-09-03T08:01:52.267Z,100935.38
2022-09-03T08:04:22.058Z,100934.94
2022-09-03T08:06:55.644Z,100934.88
2022-09-03T08:09:24.473Z,100915.56
2022-09-03T08:11:52.889Z,100931.91
2022-09-03T08:14:22.051Z,100933.66
2022-09-03T08:16:50.434Z,100934.06
2022-09-03T08:19:20.505Z,100935.94
2022-09-03T08:21:53.502Z,100833.09
2022-09-03T08:24:24.692Z,100936.75
2022-09-03T08:26:54.864Z,100918.38
2022-09-03T08:29:23.281Z,100935.34
2022-09-03T08:31:52.166Z,100947.41
2022-09-03T08:34:21.425Z,100955.69
2022-09-03T08:36:52.384Z,100945.50
2022-09-03T08:39:23.434Z,100952.50
2022-09-03T08:42:44.256Z,100937.09
2022-09-03T08:45:18.750Z,100962.59
2022-09-03T08:47:51.588Z,100958.41
2022-09-03T08:50:26.979Z,100941.53
2022-09-03T08:53:00.333Z,100960.38
2022-09-03T08:55:31.040Z,100959.72
2022-09-03T08:58:05.989Z,100949.47
2022-09-03T09:00:46.655Z,100951.38
2022-09-03T09:03:31.307Z,100958.78
2022-09-03T09:06:10.114Z,100949.09
2022-09-03T09:08:53.230Z,100960.88
2022-09-03T09:11:41.942Z,100920.13
2022-09-03T09:14:20.910Z,100945.19
2022-09-03T09:17:02.809Z,100959.13
2022-09-03T09:19:43.680Z,100957.81
2022-09-03T09:22:17.934Z,100957.47
2022-09-03T09:24:49.554Z,100966.78
2022-09-03T09:27:21.159Z,100973.69
2022-09-03T09:29:52.440Z,100952.16
2022-09-03T09:32:21.951Z,100937.94
2022-09-03T09:34:52.535Z,100974.09
2022-09-03T09:37:22.062Z,100972.81
2022-09-03T09:40:04.852Z,100971.13
2022-09-03T09:42:33.267Z,100956.94
2022-09-03T09:45:12.149Z,100958.06
2022-09-03T09:47:41.619Z,100932.91
2022-09-03T09:50:27.327Z,100934.88
2022-09-03T09:53:08.746Z,100964.72
2022-09-03T09:55:50.175Z,100960.41
2022-09-03T09:58:23.541Z,100965.09
2022-09-03T10:01:13.118Z,100970.63
2022-09-03T10:03:51.113Z,100965.22
2022-09-03T10:06:37.300Z,100968.25
2022-09-03T10:09:11.344Z,100953.97
2022-09-03T10:11:45.479Z,100869.44
2022-09-03T10:14:24.568Z,100968.53
2022-09-03T10:17:02.595Z,100949.59
2022-09-03T10:19:42.517Z,100966.13
2022-09-03T10:22:18.986Z,100960.63
2022-09-03T10:24:59.474Z,100888.09
2022-09-03T10:27:29.555Z,100966.09
2022-09-03T10:30:00.623Z,100944.97
2022-09-03T10:32:41.852Z,100967.50
2022-09-03T10:35:23.056Z,100970.84
2022-09-03T10:38:06.817Z,100965.16
2022-09-03T10:40:41.471Z,100986.84
2022-09-03T10:43:41.831Z,100978.72
2022-09-03T10:46:21.892Z,100953.47
2022-09-03T10:49:19.949Z,100973.81
2022-09-03T10:51:58.917Z,100968.84
2022-09-03T10:54:49.692Z,100958.78
2022-09-03T10:57:33.533Z,100977.97
2022-09-03T11:00:11.114Z,100975.75
2022-09-03T11:03:30.950Z,100974.81
2022-09-03T11:06:06.366Z,100963.91
2022-09-03T11:08:40.443Z,100957.50
2022-09-03T11:11:15.555Z,100952.09
2022-09-03T11:13:51.190Z,100965.13
2022-09-03T11:16:25.706Z,100954.91
2022-09-03T11:18:59.030Z,100963.72
2022-09-03T11:21:30.018Z,100971.25
2022-09-03T11:24:10.221Z,100950.50
2022-09-03T11:26:39.700Z,100963.00
2022-09-03T11:29:14.083Z,100963.66
2022-09-03T11:31:58.858Z,100966.38
2022-09-03T11:34:45.536Z,100955.16
2022-09-03T11:37:23.676Z,100954.63
2022-09-03T11:39:58.960Z,100958.59
2022-09-03T11:42:33.891Z,100959.63
2022-09-03T11:45:24.699Z,100956.75
2022-09-03T11:47:55.396Z,100957.88
2022-09-03T11:50:28.309Z,100957.34
2022-09-03T11:53:10.988Z,100952.69
2022-09-03T11:55:55.678Z,100953.81
2022-09-03T11:58:30.250Z,100949.84
2022-09-03T12:01:01.437Z,100952.56
2022-09-03T12:03:45.257Z,100959.09
2022-09-03T12:06:56.515Z,100938.59
2022-09-03T12:09:51.921Z,100954.34
2022-09-03T12:12:46.583Z,100944.34
2022-09-03T12:15:32.847Z,100940.34
2022-09-03T12:18:20.229Z,100953.16
2022-09-03T12:21:03.694Z,100954.19
2022-09-03T12:23:34.903Z,100954.78
2022-09-03T12:26:09.470Z,100941.75
2022-09-03T12:28:44.034Z,100940.88
2022-09-03T12:31:25.597Z,100948.47
2022-09-03T12:33:59.154Z,100947.91
2022-09-03T12:36:39.373Z,100830.53
2022-09-03T12:39:12.626Z,100950.53
2022-09-03T12:42:01.376Z,100935.88
2022-09-03T12:44:31.822Z,100940.59
2022-09-03T12:50:07.209Z,100940.75
2022-09-03T12:52:40.361Z,100928.94
2022-09-03T12:55:20.529Z,100916.66
2022-09-03T12:57:57.818Z,100944.28
2022-09-03T13:00:33.122Z,100936.38
2022-09-03T13:03:05.211Z,100947.78
2022-09-03T13:05:37.579Z,100938.41
2022-09-03T13:08:09.820Z,100916.34
2022-09-03T13:10:41.977Z,100940.22
2022-09-03T13:13:24.091Z,100944.25
2022-09-03T13:16:38.265Z,100936.06
2022-09-03T13:19:14.965Z,100932.44
2022-09-03T13:21:50.558Z,100930.31
2022-09-03T13:24:44.422Z,100928.53
2022-09-03T13:27:21.646Z,100929.94
2022-09-03T13:30:05.917Z,100908.44
2022-09-03T13:32:43.363Z,100941.63
2022-09-03T13:35:19.131Z,100935.69
2022-09-03T13:37:54.413Z,100952.19
2022-09-03T13:40:33.339Z,100941.19
2022-09-03T13:43:07.533Z,100930.34
2022-09-03T13:45:42.995Z,100946.97
2022-09-03T13:48:35.713Z,100843.91
2022-09-03T13:51:14.556Z,100944.41
2022-09-03T13:53:53.367Z,100920.31
2022-09-03T13:56:36.791Z,100944.50
2022-09-03T13:59:13.453Z,100940.91
2022-09-03T14:02:01.778Z,100943.28
2022-09-03T14:04:44.969Z,100943.78
2022-09-03T14:07:23.245Z,100942.22
2022-09-03T14:10:01.287Z,100934.50
2022-09-03T14:12:46.759Z,100939.31
2022-09-03T14:15:22.975Z,100945.25
2022-09-03T14:18:01.430Z,100937.31
2022-09-03T14:20:35.327Z,100941.06
2022-09-03T14:23:19.461Z,100935.28
2022-09-03T14:25:55.059Z,100928.97
2022-09-03T14:28:34.738Z,100930.56
2022-09-03T14:31:14.665Z,100910.53
2022-09-03T14:33:56.503Z,100908.13
2022-09-03T14:36:33.438Z,100934.91
2022-09-03T14:39:26.710Z,100916.69
2022-09-03T14:42:37.867Z,100937.81
2022-09-03T14:45:41.662Z,100927.81
2022-09-03T14:48:38.529Z,100923.81
2022-09-03T14:51:24.702Z,100932.72
2022-09-03T14:54:38.051Z,100930.59
2022-09-03T14:57:23.852Z,100927.72
2022-09-03T15:00:11.991Z,100925.41
2022-09-03T15:03:20.220Z,100922.91
2022-09-03T15:06:04.820Z,100927.84
2022-09-03T15:08:56.017Z,100923.91
2022-09-03T15:11:29.523Z,100923.84
2022-09-03T15:14:09.454Z,100910.59
2022-09-03T15:16:49.141Z,100928.78
2022-09-03T15:19:53.829Z,100917.28
2022-09-03T15:22:50.157Z,100935.16
2022-09-03T15:25:30.036Z,100935.31
2022-09-03T15:28:12.850Z,100930.09
2022-09-03T15:30:49.781Z,100931.22
2022-09-03T15:33:31.797Z,100932.59
2022-09-03T15:36:19.310Z,100932.53
2022-09-03T15:38:56.547Z,100931.72
2022-09-03T15:41:41.880Z,100931.72
2022-09-03T15:44:19.203Z,100935.00
2022-09-03T15:46:58.154Z,100932.22
2022-09-03T15:49:46.406Z,100926.56
2022-09-03T15:52:31.538Z,100930.50
2022-09-03T15:55:09.529Z,100936.41
2022-09-03T15:57:49.221Z,100929.56
2022-09-03T16:00:22.622Z,100937.56
2022-09-03T16:03:00.098Z,100935.06
2022-09-03T16:05:41.415Z,100905.38
2022-09-03T16:08:21.136Z,100933.72
2022-09-03T16:11:02.923Z,100929.63
2022-09-03T16:13:47.421Z,100927.22
2022-09-03T16:16:22.283Z,100924.97
2022-09-03T16:19:05.596Z,100919.66
2022-09-03T16:21:40.656Z,100922.72
2022-09-03T16:24:19.106Z,100926.59
2022-09-03T16:26:56.634Z,100926.03
2022-09-03T16:29:28.791Z,100904.38
2022-09-03T16:32:17.048Z,100906.00
2022-09-03T16:34:57.548Z,100931.91
2022-09-03T16:37:34.639Z,100942.81
2022-09-03T16:40:24.451Z,100922.50
2022-09-03T16:43:13.420Z,100930.53
2022-09-03T16:46:05.292Z,100925.44
2022-09-03T16:48:46.374Z,100925.34
2022-09-03T16:51:22.201Z,100927.75
2022-09-03T16:54:14.266Z,100930.66
2022-09-03T16:56:57.504Z,100925.69
2022-09-03T16:59:56.727Z,100905.47
2022-09-03T17:03:26.460Z,100939.56
2022-09-03T17:06:51.849Z,100939.78
2022-09-03T17:09:43.068Z,100939.69
2022-09-03T17:12:26.162Z,100946.94
2022-09-03T17:15:23.864Z,100943.16
2022-09-03T17:18:12.382Z,100948.69
2022-09-03T17:20:52.691Z,100951.22
2022-09-03T17:23:53.674Z,100947.84
2022-09-03T17:26:29.943Z,100959.63
2022-09-03T17:29:14.710Z,100959.34
2022-09-03T17:31:52.154Z,100941.03
2022-09-03T17:34:38.017Z,100968.78
2022-09-03T17:37:21.470Z,100952.34
2022-09-03T17:40:33.976Z,100953.56
2022-09-03T17:43:10.087Z,100953.31
2022-09-03T17:45:49.823Z,100960.59
2022-09-03T17:48:40.267Z,100961.47
2022-09-03T17:51:19.671Z,100958.16
2022-09-03T17:53:53.668Z,100966.31
2022-09-03T17:56:28.187Z,100970.66
2022-09-03T17:59:10.577Z,100974.09
2022-09-03T18:01:53.667Z,100977.81
2022-09-03T18:04:39.526Z,100992.66
2022-09-03T18:07:23.665Z,100977.69
2022-09-03T18:10:05.337Z,100973.06
2022-09-03T18:12:55.388Z,100998.91
2022-09-03T18:15:37.791Z,100999.06
2022-09-03T18:18:18.332Z,100997.69
2022-09-03T18:21:24.045Z,101000.72
2022-09-03T18:24:19.895Z,101003.03
2022-09-03T18:27:11.882Z,101013.97
2022-09-03T18:30:05.612Z,101019.19
2022-09-03T18:32:51.461Z,101025.22
2022-09-03T18:35:38.686Z,101031.31
2022-09-03T18:38:24.614Z,101035.97
2022-09-03T18:41:19.475Z,101026.31
2022-09-03T18:44:16.917Z,101036.47
2022-09-03T18:50:29.923Z,101043.13
2022-09-03T18:53:26.512Z,101044.38
2022-09-03T18:56:30.508Z,101052.75
2022-09-03T18:59:36.634Z,101044.97
2022-09-03T19:02:31.234Z,101058.56
2022-09-03T19:05:36.497Z,101046.97
2022-09-03T19:08:32.639Z,101040.47
2022-09-03T19:11:26.892Z,101061.91
2022-09-03T19:14:15.623Z,101069.88
2022-09-03T19:17:12.391Z,101077.50
2022-09-03T19:20:21.401Z,101076.22
2022-09-03T19:23:07.421Z,101067.72
2022-09-03T19:25:55.618Z,101076.97
2022-09-03T19:28:44.143Z,101079.16
2022-09-03T19:32:02.755Z,101070.03
2022-09-03T19:35:17.963Z,101082.22
2022-09-03T19:38:19.408Z,101079.28
2022-09-03T19:41:20.387Z,101080.81
2022-09-03T19:44:22.349Z,101076.44
2022-09-03T19:47:10.790Z,101083.09
2022-09-03T19:50:12.469Z,101085.66
2022-09-03T19:53:05.886Z,101062.69
2022-09-03T19:55:58.162Z,101084.75
2022-09-03T19:58:50.152Z,101090.88
2022-09-03T20:01:37.694Z,101092.66
2022-09-03T20:04:32.132Z,101094.38
2022-09-03T20:07:22.161Z,101096.19
2022-09-03T20:10:10.202Z,101098.63
2022-09-03T20:12:45.526Z,101098.25
2022-09-03T20:15:15.634Z,101098.66
2022-09-03T20:18:02.237Z,101086.81
2022-09-03T20:20:41.801Z,101099.69
2022-09-03T20:23:20.980Z,101088.66
2022-09-03T20:26:10.300Z,101095.13
2022-09-03T20:29:04.975Z,101059.16
2022-09-03T20:31:49.347Z,101084.50
2022-09-03T20:34:36.501Z,101097.38
2022-09-03T20:37:24.495Z,101094.28
2022-09-03T20:40:10.033Z,101099.59
2022-09-03T20:42:58.042Z,101099.09
2022-09-03T20:45:33.863Z,101089.63
2022-09-03T20:48:17.082Z,101089.63
2022-09-03T20:50:59.278Z,101062.03
2022-09-03T20:53:54.835Z,101100.94
2022-09-03T20:56:33.517Z,101105.50
2022-09-03T20:59:09.565Z,101117.91
2022-09-03T21:01:53.213Z,101113.25
2022-09-03T21:04:44.078Z,101108.28
2022-09-03T21:07:22.016Z,101107.72
2022-09-03T21:10:03.591Z,101107.44
2022-09-03T21:12:41.259Z,101105.34
2022-09-03T21:15:21.147Z,101118.59
2022-09-03T21:18:03.194Z,101094.66
2022-09-03T21:20:43.337Z,101113.06
2022-09-03T21:23:22.225Z,101116.38
2022-09-03T21:26:01.604Z,101111.59
2022-09-03T21:28:38.530Z,101107.88
2022-09-03T21:31:19.609Z,101109.47
2022-09-03T21:33:50.637Z,101119.31
2022-09-03T21:36:31.446Z,101123.94
2022-09-03T21:39:07.161Z,101120.84
2022-09-03T21:41:40.426Z,101129.00
2022-09-03T21:44:14.558Z,101130.03
2022-09-03T21:46:51.822Z,101128.13
2022-09-03T21:49:26.750Z,101126.91
2022-09-03T21:52:02.232Z,101133.69
2022-09-03T21:54:33.713Z,101129.47
2022-09-03T21:57:22.178Z,101127.25
2022-09-03T22:00:17.659Z,101137.72
2022-09-03T22:02:47.263Z,101124.84
2022-09-03T22:05:18.522Z,101137.22
2022-09-03T22:08:06.065Z,101126.38
2022-09-03T22:10:41.546Z,101130.28
2022-09-03T22:13:21.640Z,101129.09
2022-09-03T22:15:52.079Z,101131.72
2022-09-03T22:18:29.068Z,101135.22
2022-09-03T22:21:04.806Z,101108.81
2022-09-03T22:23:45.018Z,101128.03
2022-09-03T22:26:27.000Z,101131.03
2022-09-03T22:29:08.038Z,101128.06
2022-09-03T22:31:53.572Z,101145.22
2022-09-03T22:34:49.379Z,101125.31
2022-09-03T22:37:30.914Z,101134.53
2022-09-03T22:40:13.114Z,101134.41
2022-09-03T22:43:01.840Z,101139.59
2022-09-03T22:46:04.351Z,101142.53
2022-09-03T22:49:06.482Z,101138.19
2022-09-03T22:51:54.691Z,101135.69
2022-09-03T22:54:47.191Z,101106.66
2022-09-03T22:57:19.453Z,101127.59
2022-09-03T22:59:58.405Z,101149.72
2022-09-03T23:02:29.783Z,101156.41
2022-09-03T23:05:06.838Z,101154.81
2022-09-03T23:07:52.696Z,101151.19
2022-09-03T23:10:29.168Z,101157.13
2022-09-03T23:13:09.319Z,101159.00
2022-09-03T23:15:41.607Z,101161.28
2022-09-03T23:18:17.619Z,101165.09
2022-09-03T23:20:56.774Z,101159.97
2022-09-03T23:23:31.114Z,101137.03
2022-09-03T23:26:13.346Z,101159.97
2022-09-03T23:28:50.806Z,101162.59
2022-09-03T23:31:23.334Z,101163.63
2022-09-03T23:33:56.102Z,101169.22
2022-09-03T23:37:01.331Z,101168.25
2022-09-03T23:39:49.203Z,101134.88
2022-09-03T23:42:29.708Z,101156.03
2022-09-03T23:45:15.661Z,101168.00
2022-09-03T23:47:54.606Z,101152.28
2022-09-03T23:50:33.303Z,101169.94
2022-09-03T23:53:20.635Z,101158.69
2022-09-03T23:56:05.166Z,101164.81
2022-09-03T23:58:52.272Z,101168.50
